sensor_id;sensor_type;location;lat;lon;timestamp;P1;durP1;ratioP1;P2;durP2;ratioP2
7761;SDS011;3925;48.636;9.516;2022-12-18T00:01:50;53.30;;;30.27;;
7761;SDS011;3925;48.636;9.516;2022-12-18T00:04:18;61.58;;;29.73;;
7761;SDS011;3925;48.636;9.516;2022-12-18T00:06:48;59.65;;;30.77;;
7761;SDS011;3925;48.636;9.516;2022-12-18T00:09:15;62.80;;;31.50;;
7761;SDS011;3925;48.636;9.516;2022-12-18T00:11:42;74.43;;;36.50;;
7761;SDS011;3925;48.636;9.516;2022-12-18T00:14:11;60.25;;;32.10;;
7761;SDS011;3925;48.636;9.516;2022-12-18T00:16:39;59.25;;;33.15;;
7761;SDS011;3925;48.636;9.516;2022-12-18T00:19:08;53.97;;;30.60;;
7761;SDS011;3925;48.636;9.516;2022-12-18T00:21:36;62.00;;;32.10;;
7761;SDS011;3925;48.636;9.516;2022-12-18T00:24:04;58.38;;;33.08;;
7761;SDS011;3925;48.636;9.516;2022-12-18T00:26:32;72.00;;;35.20;;
7761;SDS011;3925;48.636;9.516;2022-12-18T00:29:00;71.47;;;38.85;;
7761;SDS011;3925;48.636;9.516;2022-12-18T00:31:30;66.47;;;36.47;;
7761;SDS011;3925;48.636;9.516;2022-12-18T00:33:57;76.22;;;36.72;;
7761;SDS011;3925;48.636;9.516;2022-12-18T00:36:25;64.82;;;32.65;;
7761;SDS011;3925;48.636;9.516;2022-12-18T00:38:53;63.40;;;33.25;;
7761;SDS011;3925;48.636;9.516;2022-12-18T00:41:21;70.47;;;35.25;;
7761;SDS011;3925;48.636;9.516;2022-12-18T00:44:07;54.30;;;31.10;;
7761;SDS011;3925;48.636;9.516;2022-12-18T00:46:36;69.32;;;34.22;;
7761;SDS011;3925;48.636;9.516;2022-12-18T00:49:04;59.90;;;33.80;;
7761;SDS011;3925;48.636;9.516;2022-12-18T00:51:31;62.28;;;30.80;;
7761;SDS011;3925;48.636;9.516;2022-12-18T00:53:58;58.72;;;31.08;;
7761;SDS011;3925;48.636;9.516;2022-12-18T00:56:24;63.22;;;33.45;;
7761;SDS011;3925;48.636;9.516;2022-12-18T00:58:52;115.85;;;33.28;;
7761;SDS011;3925;48.636;9.516;2022-12-18T01:01:19;58.30;;;29.83;;
7761;SDS011;3925;48.636;9.516;2022-12-18T01:03:47;83.50;;;33.65;;
7761;SDS011;3925;48.636;9.516;2022-12-18T01:06:15;63.65;;;31.52;;
7761;SDS011;3925;48.636;9.516;2022-12-18T01:08:42;58.85;;;34.40;;
7761;SDS011;3925;48.636;9.516;2022-12-18T01:11:09;62.38;;;30.50;;
7761;SDS011;3925;48.636;9.516;2022-12-18T01:13:37;62.47;;;30.00;;
7761;SDS011;3925;48.636;9.516;2022-12-18T01:16:05;59.97;;;31.63;;
7761;SDS011;3925;48.636;9.516;2022-12-18T01:18:32;59.33;;;31.80;;
7761;SDS011;3925;48.636;9.516;2022-12-18T01:21:00;51.50;;;29.63;;
7761;SDS011;3925;48.636;9.516;2022-12-18T01:23:31;60.78;;;30.92;;
7761;SDS011;3925;48.636;9.516;2022-12-18T01:25:58;63.70;;;33.42;;
7761;SDS011;3925;48.636;9.516;2022-12-18T01:28:29;55.22;;;30.38;;
7761;SDS011;3925;48.636;9.516;2022-12-18T01:30:56;66.95;;;32.10;;
7761;SDS011;3925;48.636;9.516;2022-12-18T01:33:23;59.67;;;32.20;;
7761;SDS011;3925;48.636;9.516;2022-12-18T01:35:50;56.80;;;29.92;;
7761;SDS011;3925;48.636;9.516;2022-12-18T01:38:18;57.58;;;31.08;;
7761;SDS011;3925;48.636;9.516;2022-12-18T01:40:44;59.97;;;32.20;;
7761;SDS011;3925;48.636;9.516;2022-12-18T01:43:11;59.17;;;32.00;;
7761;SDS011;3925;48.636;9.516;2022-12-18T01:45:38;62.80;;;30.27;;
7761;SDS011;3925;48.636;9.516;2022-12-18T01:48:05;56.22;;;31.55;;
7761;SDS011;3925;48.636;9.516;2022-12-18T01:50:35;54.90;;;30.17;;
7761;SDS011;3925;48.636;9.516;2022-12-18T01:53:05;44.25;;;27.27;;
7761;SDS011;3925;48.636;9.516;2022-12-18T01:55:38;52.80;;;28.10;;
7761;SDS011;3925;48.636;9.516;2022-12-18T01:58:09;56.47;;;29.83;;
7761;SDS011;3925;48.636;9.516;2022-12-18T02:00:36;68.68;;;29.85;;
7761;SDS011;3925;48.636;9.516;2022-12-18T02:03:02;67.38;;;32.70;;
7761;SDS011;3925;48.636;9.516;2022-12-18T02:05:33;59.83;;;32.40;;
7761;SDS011;3925;48.636;9.516;2022-12-18T02:08:09;53.42;;;30.58;;
7761;SDS011;3925;48.636;9.516;2022-12-18T02:10:44;63.78;;;29.45;;
7761;SDS011;3925;48.636;9.516;2022-12-18T02:13:17;58.50;;;31.55;;
7761;SDS011;3925;48.636;9.516;2022-12-18T02:15:51;55.80;;;29.17;;
7761;SDS011;3925;48.636;9.516;2022-12-18T02:18:27;48.33;;;27.48;;
7761;SDS011;3925;48.636;9.516;2022-12-18T02:20:59;59.72;;;30.80;;
7761;SDS011;3925;48.636;9.516;2022-12-18T02:23:38;58.10;;;29.35;;
7761;SDS011;3925;48.636;9.516;2022-12-18T02:26:18;50.50;;;28.40;;
7761;SDS011;3925;48.636;9.516;2022-12-18T02:28:49;59.78;;;29.58;;
7761;SDS011;3925;48.636;9.516;2022-12-18T02:31:22;58.60;;;29.92;;
7761;SDS011;3925;48.636;9.516;2022-12-18T02:33:52;55.33;;;30.50;;
7761;SDS011;3925;48.636;9.516;2022-12-18T02:36:22;59.10;;;29.13;;
7761;SDS011;3925;48.636;9.516;2022-12-18T02:38:51;48.72;;;27.80;;
7761;SDS011;3925;48.636;9.516;2022-12-18T02:41:20;51.47;;;26.17;;
7761;SDS011;3925;48.636;9.516;2022-12-18T02:43:48;43.53;;;26.17;;
7761;SDS011;3925;48.636;9.516;2022-12-18T02:46:32;54.40;;;27.52;;
7761;SDS011;3925;48.636;9.516;2022-12-18T02:49:04;51.60;;;28.52;;
7761;SDS011;3925;48.636;9.516;2022-12-18T02:51:39;51.83;;;25.73;;
7761;SDS011;3925;48.636;9.516;2022-12-18T02:54:16;41.72;;;23.70;;
7761;SDS011;3925;48.636;9.516;2022-12-18T02:56:52;50.13;;;25.92;;
7761;SDS011;3925;48.636;9.516;2022-12-18T02:59:23;45.13;;;25.67;;
7761;SDS011;3925;48.636;9.516;2022-12-18T03:01:58;47.90;;;26.05;;
7761;SDS011;3925;48.636;9.516;2022-12-18T03:04:32;54.72;;;28.05;;
7761;SDS011;3925;48.636;9.516;2022-12-18T03:07:05;46.60;;;25.23;;
7761;SDS011;3925;48.636;9.516;2022-12-18T03:09:36;43.40;;;24.30;;
7761;SDS011;3925;48.636;9.516;2022-12-18T03:12:10;44.85;;;25.52;;
7761;SDS011;3925;48.636;9.516;2022-12-18T03:14:52;49.92;;;26.75;;
7761;SDS011;3925;48.636;9.516;2022-12-18T03:17:23;50.33;;;27.58;;
7761;SDS011;3925;48.636;9.516;2022-12-18T03:19:53;52.25;;;25.27;;
7761;SDS011;3925;48.636;9.516;2022-12-18T03:22:24;43.88;;;26.52;;
7761;SDS011;3925;48.636;9.516;2022-12-18T03:24:56;58.60;;;31.00;;
7761;SDS011;3925;48.636;9.516;2022-12-18T03:27:25;55.83;;;29.50;;
7761;SDS011;3925;48.636;9.516;2022-12-18T03:29:56;54.90;;;29.50;;
7761;SDS011;3925;48.636;9.516;2022-12-18T03:32:33;47.67;;;28.75;;
7761;SDS011;3925;48.636;9.516;2022-12-18T03:35:04;57.85;;;29.98;;
7761;SDS011;3925;48.636;9.516;2022-12-18T03:37:34;52.80;;;26.80;;
7761;SDS011;3925;48.636;9.516;2022-12-18T03:40:01;64.30;;;27.73;;
7761;SDS011;3925;48.636;9.516;2022-12-18T03:42:32;54.20;;;25.85;;
7761;SDS011;3925;48.636;9.516;2022-12-18T03:45:06;51.30;;;27.30;;
7761;SDS011;3925;48.636;9.516;2022-12-18T03:47:38;56.00;;;26.95;;
7761;SDS011;3925;48.636;9.516;2022-12-18T03:50:12;54.05;;;27.65;;
7761;SDS011;3925;48.636;9.516;2022-12-18T03:52:46;44.08;;;26.88;;
7761;SDS011;3925;48.636;9.516;2022-12-18T03:55:17;49.67;;;27.98;;
7761;SDS011;3925;48.636;9.516;2022-12-18T03:57:46;61.50;;;29.65;;
7761;SDS011;3925;48.636;9.516;2022-12-18T04:00:15;50.50;;;29.45;;
7761;SDS011;3925;48.636;9.516;2022-12-18T04:02:44;60.45;;;28.40;;
7761;SDS011;3925;48.636;9.516;2022-12-18T04:05:15;48.78;;;26.65;;
7761;SDS011;3925;48.636;9.516;2022-12-18T04:07:43;45.90;;;25.35;;
7761;SDS011;3925;48.636;9.516;2022-12-18T04:10:11;50.65;;;24.70;;
7761;SDS011;3925;48.636;9.516;2022-12-18T04:12:38;51.90;;;25.92;;
7761;SDS011;3925;48.636;9.516;2022-12-18T04:15:08;46.25;;;24.52;;
7761;SDS011;3925;48.636;9.516;2022-12-18T04:17:35;43.40;;;24.80;;
7761;SDS011;3925;48.636;9.516;2022-12-18T04:20:02;35.53;;;21.80;;
7761;SDS011;3925;48.636;9.516;2022-12-18T04:22:30;39.72;;;24.17;;
7761;SDS011;3925;48.636;9.516;2022-12-18T04:24:57;41.85;;;26.70;;
7761;SDS011;3925;48.636;9.516;2022-12-18T04:27:23;49.03;;;24.30;;
7761;SDS011;3925;48.636;9.516;2022-12-18T04:29:50;46.08;;;24.50;;
7761;SDS011;3925;48.636;9.516;2022-12-18T04:32:18;43.05;;;25.23;;
7761;SDS011;3925;48.636;9.516;2022-12-18T04:34:45;42.90;;;23.65;;
7761;SDS011;3925;48.636;9.516;2022-12-18T04:37:12;39.67;;;22.67;;
7761;SDS011;3925;48.636;9.516;2022-12-18T04:39:39;50.13;;;25.00;;
7761;SDS011;3925;48.636;9.516;2022-12-18T04:42:06;39.60;;;22.45;;
7761;SDS011;3925;48.636;9.516;2022-12-18T04:44:33;47.05;;;26.23;;
7761;SDS011;3925;48.636;9.516;2022-12-18T04:47:00;45.47;;;24.63;;
7761;SDS011;3925;48.636;9.516;2022-12-18T04:49:28;38.20;;;24.30;;
7761;SDS011;3925;48.636;9.516;2022-12-18T04:51:55;41.92;;;24.27;;
7761;SDS011;3925;48.636;9.516;2022-12-18T04:54:22;43.67;;;24.52;;
7761;SDS011;3925;48.636;9.516;2022-12-18T04:56:48;45.13;;;24.98;;
7761;SDS011;3925;48.636;9.516;2022-12-18T04:59:15;36.30;;;21.77;;
7761;SDS011;3925;48.636;9.516;2022-12-18T05:01:42;44.08;;;23.20;;
7761;SDS011;3925;48.636;9.516;2022-12-18T05:04:09;39.67;;;23.80;;
7761;SDS011;3925;48.636;9.516;2022-12-18T05:06:37;39.55;;;21.90;;
7761;SDS011;3925;48.636;9.516;2022-12-18T05:09:04;37.80;;;22.08;;
7761;SDS011;3925;48.636;9.516;2022-12-18T05:11:31;37.80;;;24.00;;
7761;SDS011;3925;48.636;9.516;2022-12-18T05:13:57;35.72;;;26.08;;
7761;SDS011;3925;48.636;9.516;2022-12-18T05:16:24;42.63;;;24.48;;
7761;SDS011;3925;48.636;9.516;2022-12-18T05:18:51;43.30;;;24.50;;
7761;SDS011;3925;48.636;9.516;2022-12-18T05:21:18;38.17;;;21.75;;
7761;SDS011;3925;48.636;9.516;2022-12-18T05:23:46;40.58;;;24.30;;
7761;SDS011;3925;48.636;9.516;2022-12-18T05:26:14;28.35;;;20.95;;
7761;SDS011;3925;48.636;9.516;2022-12-18T05:28:43;40.67;;;23.50;;
7761;SDS011;3925;48.636;9.516;2022-12-18T05:31:10;40.38;;;22.00;;
7761;SDS011;3925;48.636;9.516;2022-12-18T05:33:37;36.97;;;23.60;;
7761;SDS011;3925;48.636;9.516;2022-12-18T05:36:04;36.50;;;20.90;;
7761;SDS011;3925;48.636;9.516;2022-12-18T05:38:34;35.05;;;22.60;;
7761;SDS011;3925;48.636;9.516;2022-12-18T05:41:03;36.78;;;22.70;;
7761;SDS011;3925;48.636;9.516;2022-12-18T05:43:31;38.88;;;21.20;;
7761;SDS011;3925;48.636;9.516;2022-12-18T05:46:02;39.35;;;22.90;;
7761;SDS011;3925;48.636;9.516;2022-12-18T05:48:32;53.35;;;26.48;;
7761;SDS011;3925;48.636;9.516;2022-12-18T05:51:03;42.70;;;27.00;;
7761;SDS011;3925;48.636;9.516;2022-12-18T05:53:32;47.72;;;25.70;;
7761;SDS011;3925;48.636;9.516;2022-12-18T05:55:59;42.42;;;22.38;;
7761;SDS011;3925;48.636;9.516;2022-12-18T05:58:29;49.50;;;23.88;;
7761;SDS011;3925;48.636;9.516;2022-12-18T06:00:56;42.20;;;24.60;;
7761;SDS011;3925;48.636;9.516;2022-12-18T06:03:23;44.25;;;23.38;;
7761;SDS011;3925;48.636;9.516;2022-12-18T06:05:50;34.83;;;22.70;;
7761;SDS011;3925;48.636;9.516;2022-12-18T06:08:17;44.15;;;24.10;;
7761;SDS011;3925;48.636;9.516;2022-12-18T06:10:49;42.92;;;23.77;;
7761;SDS011;3925;48.636;9.516;2022-12-18T06:13:17;45.75;;;22.85;;
7761;SDS011;3925;48.636;9.516;2022-12-18T06:15:45;45.03;;;24.08;;
7761;SDS011;3925;48.636;9.516;2022-12-18T06:18:12;40.55;;;25.13;;
7761;SDS011;3925;48.636;9.516;2022-12-18T06:20:39;39.10;;;24.30;;
7761;SDS011;3925;48.636;9.516;2022-12-18T06:23:06;36.38;;;22.75;;
7761;SDS011;3925;48.636;9.516;2022-12-18T06:25:36;43.90;;;23.55;;
7761;SDS011;3925;48.636;9.516;2022-12-18T06:28:04;35.08;;;21.95;;
7761;SDS011;3925;48.636;9.516;2022-12-18T06:30:31;35.53;;;20.23;;
7761;SDS011;3925;48.636;9.516;2022-12-18T06:32:59;34.40;;;21.50;;
7761;SDS011;3925;48.636;9.516;2022-12-18T06:35:26;43.53;;;22.55;;
7761;SDS011;3925;48.636;9.516;2022-12-18T06:37:53;35.63;;;22.48;;
7761;SDS011;3925;48.636;9.516;2022-12-18T06:40:20;26.95;;;19.00;;
7761;SDS011;3925;48.636;9.516;2022-12-18T06:42:46;38.70;;;22.98;;
7761;SDS011;3925;48.636;9.516;2022-12-18T06:45:13;35.00;;;19.30;;
7761;SDS011;3925;48.636;9.516;2022-12-18T06:47:40;36.22;;;20.70;;
7761;SDS011;3925;48.636;9.516;2022-12-18T06:50:09;44.03;;;25.50;;
7761;SDS011;3925;48.636;9.516;2022-12-18T06:52:36;42.20;;;25.10;;
7761;SDS011;3925;48.636;9.516;2022-12-18T06:55:04;37.78;;;22.05;;
7761;SDS011;3925;48.636;9.516;2022-12-18T06:57:32;38.80;;;21.27;;
7761;SDS011;3925;48.636;9.516;2022-12-18T06:59:59;38.53;;;24.35;;
7761;SDS011;3925;48.636;9.516;2022-12-18T07:02:26;44.63;;;24.52;;
7761;SDS011;3925;48.636;9.516;2022-12-18T07:04:53;49.72;;;26.42;;
7761;SDS011;3925;48.636;9.516;2022-12-18T07:07:21;39.58;;;22.58;;
7761;SDS011;3925;48.636;9.516;2022-12-18T07:09:48;39.40;;;22.85;;
7761;SDS011;3925;48.636;9.516;2022-12-18T07:12:16;39.03;;;24.50;;
7761;SDS011;3925;48.636;9.516;2022-12-18T07:14:43;46.45;;;25.00;;
7761;SDS011;3925;48.636;9.516;2022-12-18T07:17:09;40.28;;;21.73;;
7761;SDS011;3925;48.636;9.516;2022-12-18T07:19:36;40.63;;;23.27;;
7761;SDS011;3925;48.636;9.516;2022-12-18T07:22:03;47.40;;;25.48;;
7761;SDS011;3925;48.636;9.516;2022-12-18T07:24:31;45.28;;;25.45;;
7761;SDS011;3925;48.636;9.516;2022-12-18T07:26:58;38.67;;;23.88;;
7761;SDS011;3925;48.636;9.516;2022-12-18T07:29:25;48.72;;;25.10;;
7761;SDS011;3925;48.636;9.516;2022-12-18T07:31:52;37.60;;;23.95;;
7761;SDS011;3925;48.636;9.516;2022-12-18T07:34:19;39.92;;;24.52;;
7761;SDS011;3925;48.636;9.516;2022-12-18T07:36:46;36.28;;;25.45;;
7761;SDS011;3925;48.636;9.516;2022-12-18T07:39:13;44.58;;;24.45;;
7761;SDS011;3925;48.636;9.516;2022-12-18T07:41:41;44.17;;;27.70;;
7761;SDS011;3925;48.636;9.516;2022-12-18T07:44:11;42.92;;;24.25;;
7761;SDS011;3925;48.636;9.516;2022-12-18T07:46:38;42.50;;;23.73;;
7761;SDS011;3925;48.636;9.516;2022-12-18T07:49:05;42.88;;;28.08;;
7761;SDS011;3925;48.636;9.516;2022-12-18T07:51:35;41.90;;;23.80;;
7761;SDS011;3925;48.636;9.516;2022-12-18T07:54:02;40.80;;;25.48;;
7761;SDS011;3925;48.636;9.516;2022-12-18T07:56:30;44.90;;;25.48;;
7761;SDS011;3925;48.636;9.516;2022-12-18T07:58:58;37.92;;;23.90;;
7761;SDS011;3925;48.636;9.516;2022-12-18T08:01:25;35.65;;;24.85;;
7761;SDS011;3925;48.636;9.516;2022-12-18T08:03:52;32.43;;;22.60;;
7761;SDS011;3925;48.636;9.516;2022-12-18T08:06:19;48.00;;;28.40;;
7761;SDS011;3925;48.636;9.516;2022-12-18T08:08:46;55.08;;;28.92;;
7761;SDS011;3925;48.636;9.516;2022-12-18T08:11:13;45.67;;;27.88;;
7761;SDS011;3925;48.636;9.516;2022-12-18T08:13:39;47.28;;;30.25;;
7761;SDS011;3925;48.636;9.516;2022-12-18T08:16:08;54.00;;;32.17;;
7761;SDS011;3925;48.636;9.516;2022-12-18T08:18:35;51.53;;;33.55;;
7761;SDS011;3925;48.636;9.516;2022-12-18T08:21:09;39.70;;;23.85;;
7761;SDS011;3925;48.636;9.516;2022-12-18T08:23:36;52.72;;;29.83;;
7761;SDS011;3925;48.636;9.516;2022-12-18T08:26:03;45.43;;;27.40;;
7761;SDS011;3925;48.636;9.516;2022-12-18T08:28:30;37.95;;;22.95;;
7761;SDS011;3925;48.636;9.516;2022-12-18T08:30:57;38.10;;;22.73;;
7761;SDS011;3925;48.636;9.516;2022-12-18T08:33:25;39.73;;;22.67;;
7761;SDS011;3925;48.636;9.516;2022-12-18T08:35:53;35.08;;;22.20;;
7761;SDS011;3925;48.636;9.516;2022-12-18T08:38:19;47.77;;;26.80;;
7761;SDS011;3925;48.636;9.516;2022-12-18T08:40:47;43.97;;;25.70;;
7761;SDS011;3925;48.636;9.516;2022-12-18T08:43:14;38.67;;;24.03;;
7761;SDS011;3925;48.636;9.516;2022-12-18T08:45:59;39.70;;;26.00;;
7761;SDS011;3925;48.636;9.516;2022-12-18T08:48:27;41.53;;;24.67;;
7761;SDS011;3925;48.636;9.516;2022-12-18T08:50:54;37.87;;;24.50;;
7761;SDS011;3925;48.636;9.516;2022-12-18T08:53:24;39.40;;;25.70;;
7761;SDS011;3925;48.636;9.516;2022-12-18T08:55:52;43.60;;;25.43;;
7761;SDS011;3925;48.636;9.516;2022-12-18T08:58:19;39.20;;;27.23;;
7761;SDS011;3925;48.636;9.516;2022-12-18T09:00:46;42.87;;;29.30;;
7761;SDS011;3925;48.636;9.516;2022-12-18T09:03:13;36.17;;;26.57;;
7761;SDS011;3925;48.636;9.516;2022-12-18T09:05:41;42.00;;;30.00;;
7761;SDS011;3925;48.636;9.516;2022-12-18T09:08:09;39.33;;;28.13;;
7761;SDS011;3925;48.636;9.516;2022-12-18T09:10:40;38.30;;;27.50;;
7761;SDS011;3925;48.636;9.516;2022-12-18T09:13:08;41.53;;;29.93;;
7761;SDS011;3925;48.636;9.516;2022-12-18T09:15:39;38.47;;;31.93;;
7761;SDS011;3925;48.636;9.516;2022-12-18T09:18:06;40.10;;;29.37;;
7761;SDS011;3925;48.636;9.516;2022-12-18T09:20:33;34.13;;;27.90;;
7761;SDS011;3925;48.636;9.516;2022-12-18T09:23:05;37.50;;;27.23;;
7761;SDS011;3925;48.636;9.516;2022-12-18T09:25:32;32.87;;;26.73;;
7761;SDS011;3925;48.636;9.516;2022-12-18T09:28:01;37.00;;;28.00;;
7761;SDS011;3925;48.636;9.516;2022-12-18T09:30:28;42.30;;;31.60;;
7761;SDS011;3925;48.636;9.516;2022-12-18T09:32:58;49.43;;;34.27;;
7761;SDS011;3925;48.636;9.516;2022-12-18T09:35:25;43.67;;;33.93;;
7761;SDS011;3925;48.636;9.516;2022-12-18T09:37:52;40.13;;;33.17;;
7761;SDS011;3925;48.636;9.516;2022-12-18T09:40:22;45.60;;;34.17;;
7761;SDS011;3925;48.636;9.516;2022-12-18T09:42:52;43.73;;;36.10;;
7761;SDS011;3925;48.636;9.516;2022-12-18T09:45:26;42.70;;;34.80;;
7761;SDS011;3925;48.636;9.516;2022-12-18T09:47:55;40.33;;;32.70;;
7761;SDS011;3925;48.636;9.516;2022-12-18T09:50:31;37.90;;;31.80;;
7761;SDS011;3925;48.636;9.516;2022-12-18T09:53:02;43.60;;;33.47;;
7761;SDS011;3925;48.636;9.516;2022-12-18T09:55:35;40.40;;;33.97;;
7761;SDS011;3925;48.636;9.516;2022-12-18T09:58:06;40.17;;;34.57;;
7761;SDS011;3925;48.636;9.516;2022-12-18T10:00:42;39.33;;;33.20;;
7761;SDS011;3925;48.636;9.516;2022-12-18T10:03:10;37.80;;;31.20;;
7761;SDS011;3925;48.636;9.516;2022-12-18T10:05:39;36.10;;;32.40;;
7761;SDS011;3925;48.636;9.516;2022-12-18T10:08:13;40.03;;;34.33;;
7761;SDS011;3925;48.636;9.516;2022-12-18T10:10:50;35.67;;;31.47;;
7761;SDS011;3925;48.636;9.516;2022-12-18T10:13:21;35.60;;;31.07;;
7761;SDS011;3925;48.636;9.516;2022-12-18T10:15:54;36.93;;;33.13;;
7761;SDS011;3925;48.636;9.516;2022-12-18T10:18:33;39.80;;;35.60;;
7761;SDS011;3925;48.636;9.516;2022-12-18T10:21:15;41.60;;;35.00;;
7761;SDS011;3925;48.636;9.516;2022-12-18T10:23:48;37.83;;;33.77;;
7761;SDS011;3925;48.636;9.516;2022-12-18T10:26:25;43.00;;;37.77;;
7761;SDS011;3925;48.636;9.516;2022-12-18T10:28:51;40.83;;;36.20;;
7761;SDS011;3925;48.636;9.516;2022-12-18T10:31:22;40.30;;;36.07;;
7761;SDS011;3925;48.636;9.516;2022-12-18T10:33:50;44.97;;;39.77;;
7761;SDS011;3925;48.636;9.516;2022-12-18T10:36:19;41.43;;;37.00;;
7761;SDS011;3925;48.636;9.516;2022-12-18T10:38:49;37.77;;;33.77;;
7761;SDS011;3925;48.636;9.516;2022-12-18T10:41:26;41.13;;;36.70;;
7761;SDS011;3925;48.636;9.516;2022-12-18T10:44:10;41.33;;;37.17;;
7761;SDS011;3925;48.636;9.516;2022-12-18T10:46:40;43.07;;;38.40;;
7761;SDS011;3925;48.636;9.516;2022-12-18T10:49:17;44.00;;;37.23;;
7761;SDS011;3925;48.636;9.516;2022-12-18T10:51:47;46.70;;;36.73;;
7761;SDS011;3925;48.636;9.516;2022-12-18T10:54:15;41.20;;;36.53;;
7761;SDS011;3925;48.636;9.516;2022-12-18T10:56:46;80.23;;;56.57;;
7761;SDS011;3925;48.636;9.516;2022-12-18T10:59:14;71.53;;;54.10;;
7761;SDS011;3925;48.636;9.516;2022-12-18T11:01:49;69.80;;;53.00;;
7761;SDS011;3925;48.636;9.516;2022-12-18T11:04:19;61.33;;;47.33;;
7761;SDS011;3925;48.636;9.516;2022-12-18T11:06:52;69.10;;;50.53;;
7761;SDS011;3925;48.636;9.516;2022-12-18T11:09:26;64.83;;;47.00;;
7761;SDS011;3925;48.636;9.516;2022-12-18T11:11:56;46.40;;;39.03;;
7761;SDS011;3925;48.636;9.516;2022-12-18T11:14:28;51.07;;;41.17;;
7761;SDS011;3925;48.636;9.516;2022-12-18T11:16:57;51.87;;;41.70;;
7761;SDS011;3925;48.636;9.516;2022-12-18T11:19:28;48.53;;;38.27;;
7761;SDS011;3925;48.636;9.516;2022-12-18T11:21:59;50.77;;;39.93;;
7761;SDS011;3925;48.636;9.516;2022-12-18T11:24:29;44.43;;;38.07;;
7761;SDS011;3925;48.636;9.516;2022-12-18T11:26:59;38.30;;;30.63;;
7761;SDS011;3925;48.636;9.516;2022-12-18T11:29:34;35.23;;;27.57;;
7761;SDS011;3925;48.636;9.516;2022-12-18T11:34:57;34.83;;;27.20;;
7761;SDS011;3925;48.636;9.516;2022-12-18T11:37:28;31.90;;;25.40;;
7761;SDS011;3925;48.636;9.516;2022-12-18T11:39:57;31.57;;;25.93;;
7761;SDS011;3925;48.636;9.516;2022-12-18T11:42:30;31.70;;;26.20;;
7761;SDS011;3925;48.636;9.516;2022-12-18T11:45:03;31.53;;;25.97;;
7761;SDS011;3925;48.636;9.516;2022-12-18T11:47:48;29.37;;;23.60;;
7761;SDS011;3925;48.636;9.516;2022-12-18T11:50:21;29.70;;;22.87;;
7761;SDS011;3925;48.636;9.516;2022-12-18T11:52:51;31.33;;;25.97;;
7761;SDS011;3925;48.636;9.516;2022-12-18T11:55:19;26.73;;;22.80;;
7761;SDS011;3925;48.636;9.516;2022-12-18T11:58:00;30.20;;;25.07;;
7761;SDS011;3925;48.636;9.516;2022-12-18T12:00:34;31.43;;;25.90;;
7761;SDS011;3925;48.636;9.516;2022-12-18T12:03:23;31.30;;;25.13;;
7761;SDS011;3925;48.636;9.516;2022-12-18T12:06:08;30.07;;;24.57;;
7761;SDS011;3925;48.636;9.516;2022-12-18T12:08:48;38.73;;;26.00;;
7761;SDS011;3925;48.636;9.516;2022-12-18T12:11:31;32.17;;;25.30;;
7761;SDS011;3925;48.636;9.516;2022-12-18T12:14:09;35.83;;;27.57;;
7761;SDS011;3925;48.636;9.516;2022-12-18T12:16:46;38.07;;;27.97;;
7761;SDS011;3925;48.636;9.516;2022-12-18T12:19:22;36.67;;;27.47;;
7761;SDS011;3925;48.636;9.516;2022-12-18T12:22:02;35.37;;;26.30;;
7761;SDS011;3925;48.636;9.516;2022-12-18T12:24:38;33.70;;;26.27;;
7761;SDS011;3925;48.636;9.516;2022-12-18T12:27:17;36.23;;;28.40;;
7761;SDS011;3925;48.636;9.516;2022-12-18T12:29:57;35.90;;;26.87;;
7761;SDS011;3925;48.636;9.516;2022-12-18T12:32:36;37.33;;;28.30;;
7761;SDS011;3925;48.636;9.516;2022-12-18T12:35:18;35.67;;;27.00;;
7761;SDS011;3925;48.636;9.516;2022-12-18T12:37:53;36.20;;;25.93;;
7761;SDS011;3925;48.636;9.516;2022-12-18T12:40:29;34.10;;;25.90;;
7761;SDS011;3925;48.636;9.516;2022-12-18T12:43:10;42.20;;;26.60;;
7761;SDS011;3925;48.636;9.516;2022-12-18T12:45:46;37.63;;;25.23;;
7761;SDS011;3925;48.636;9.516;2022-12-18T12:48:19;33.07;;;24.87;;
7761;SDS011;3925;48.636;9.516;2022-12-18T12:50:53;38.30;;;24.17;;
7761;SDS011;3925;48.636;9.516;2022-12-18T12:53:25;35.37;;;22.80;;
7761;SDS011;3925;48.636;9.516;2022-12-18T12:55:56;36.23;;;24.90;;
7761;SDS011;3925;48.636;9.516;2022-12-18T12:58:26;36.90;;;24.47;;
7761;SDS011;3925;48.636;9.516;2022-12-18T13:01:04;35.43;;;24.43;;
7761;SDS011;3925;48.636;9.516;2022-12-18T13:03:49;34.87;;;23.57;;
7761;SDS011;3925;48.636;9.516;2022-12-18T13:06:24;39.47;;;24.43;;
7761;SDS011;3925;48.636;9.516;2022-12-18T13:09:00;38.73;;;22.43;;
7761;SDS011;3925;48.636;9.516;2022-12-18T13:11:32;34.67;;;22.10;;
7761;SDS011;3925;48.636;9.516;2022-12-18T13:14:20;37.30;;;24.73;;
7761;SDS011;3925;48.636;9.516;2022-12-18T13:20:04;44.00;;;26.17;;
7761;SDS011;3925;48.636;9.516;2022-12-18T13:22:36;41.07;;;26.37;;
7761;SDS011;3925;48.636;9.516;2022-12-18T13:28:04;35.77;;;24.53;;
7761;SDS011;3925;48.636;9.516;2022-12-18T13:30:47;36.17;;;24.23;;
7761;SDS011;3925;48.636;9.516;2022-12-18T13:36:26;38.80;;;21.20;;
7761;SDS011;3925;48.636;9.516;2022-12-18T13:45:37;31.43;;;22.07;;
7761;SDS011;3925;48.636;9.516;2022-12-18T13:48:20;35.77;;;23.00;;
7761;SDS011;3925;48.636;9.516;2022-12-18T13:50:52;38.27;;;24.13;;
7761;SDS011;3925;48.636;9.516;2022-12-18T13:53:28;39.17;;;26.33;;
7761;SDS011;3925;48.636;9.516;2022-12-18T13:55:58;34.43;;;21.57;;
7761;SDS011;3925;48.636;9.516;2022-12-18T13:58:25;31.90;;;20.83;;
7761;SDS011;3925;48.636;9.516;2022-12-18T14:00:52;45.33;;;27.70;;
7761;SDS011;3925;48.636;9.516;2022-12-18T14:03:20;37.17;;;23.90;;
7761;SDS011;3925;48.636;9.516;2022-12-18T14:05:58;38.40;;;24.30;;
7761;SDS011;3925;48.636;9.516;2022-12-18T14:08:32;34.13;;;21.90;;
7761;SDS011;3925;48.636;9.516;2022-12-18T14:11:02;36.13;;;22.67;;
7761;SDS011;3925;48.636;9.516;2022-12-18T14:13:32;36.93;;;24.90;;
7761;SDS011;3925;48.636;9.516;2022-12-18T14:16:04;43.97;;;29.50;;
7761;SDS011;3925;48.636;9.516;2022-12-18T14:18:36;39.60;;;26.10;;
7761;SDS011;3925;48.636;9.516;2022-12-18T14:21:16;47.63;;;28.07;;
7761;SDS011;3925;48.636;9.516;2022-12-18T14:23:46;50.87;;;28.83;;
7761;SDS011;3925;48.636;9.516;2022-12-18T14:26:21;48.23;;;29.70;;
7761;SDS011;3925;48.636;9.516;2022-12-18T14:28:52;51.37;;;30.80;;
7761;SDS011;3925;48.636;9.516;2022-12-18T14:31:21;47.83;;;30.93;;
7761;SDS011;3925;48.636;9.516;2022-12-18T14:33:49;51.00;;;32.20;;
7761;SDS011;3925;48.636;9.516;2022-12-18T14:36:19;49.93;;;33.20;;
7761;SDS011;3925;48.636;9.516;2022-12-18T14:38:48;55.90;;;34.97;;
7761;SDS011;3925;48.636;9.516;2022-12-18T14:41:17;52.57;;;33.57;;
7761;SDS011;3925;48.636;9.516;2022-12-18T14:43:46;53.90;;;34.73;;
7761;SDS011;3925;48.636;9.516;2022-12-18T14:46:31;51.10;;;33.10;;
7761;SDS011;3925;48.636;9.516;2022-12-18T14:49:02;52.20;;;31.90;;
7761;SDS011;3925;48.636;9.516;2022-12-18T14:51:32;54.20;;;33.53;;
7761;SDS011;3925;48.636;9.516;2022-12-18T14:54:01;52.57;;;32.37;;
7761;SDS011;3925;48.636;9.516;2022-12-18T14:56:30;48.93;;;32.43;;
7761;SDS011;3925;48.636;9.516;2022-12-18T14:58:59;57.77;;;34.30;;
7761;SDS011;3925;48.636;9.516;2022-12-18T15:01:28;55.67;;;36.30;;
7761;SDS011;3925;48.636;9.516;2022-12-18T15:03:56;54.53;;;34.80;;
7761;SDS011;3925;48.636;9.516;2022-12-18T15:06:28;57.50;;;32.60;;
7761;SDS011;3925;48.636;9.516;2022-12-18T15:08:59;59.07;;;34.10;;
7761;SDS011;3925;48.636;9.516;2022-12-18T15:11:28;61.47;;;39.90;;
7761;SDS011;3925;48.636;9.516;2022-12-18T15:13:59;62.27;;;41.40;;
7761;SDS011;3925;48.636;9.516;2022-12-18T15:16:49;70.47;;;42.73;;
7761;SDS011;3925;48.636;9.516;2022-12-18T15:19:17;58.60;;;39.47;;
7761;SDS011;3925;48.636;9.516;2022-12-18T15:21:47;64.30;;;35.67;;
7761;SDS011;3925;48.636;9.516;2022-12-18T15:24:16;63.93;;;36.30;;
7761;SDS011;3925;48.636;9.516;2022-12-18T15:26:44;65.93;;;39.70;;